createdAt,value
2018-08-30T00:02:23.161Z,75.11
2018-08-30T00:04:51.863Z,75.79
2018-08-30T00:07:20.462Z,75.45
2018-08-30T00:09:49.285Z,75.48
2018-08-30T00:12:18.001Z,75.94
2018-08-30T00:14:46.686Z,76.07
2018-08-30T00:17:16.039Z,76.83
2018-08-30T00:19:44.686Z,76.94
2018-08-30T00:22:13.405Z,77.05
2018-08-30T00:24:42.107Z,77.05
2018-08-30T00:27:10.681Z,77.26
2018-08-30T00:29:39.359Z,77.61
2018-08-30T00:32:08.050Z,77.78
2018-08-30T00:34:36.654Z,77.57
2018-08-30T00:37:05.238Z,77.88
2018-08-30T00:39:33.899Z,78.26
2018-08-30T00:42:02.534Z,78.07
2018-08-30T00:44:31.177Z,77.95
2018-08-30T00:46:59.907Z,78.09
2018-08-30T00:49:29.161Z,77.88
2018-08-30T00:51:57.978Z,78.34
2018-08-30T00:54:26.653Z,78.62
2018-08-30T00:56:55.267Z,78.46
2018-08-30T00:59:23.880Z,78.50
2018-08-30T01:01:53.782Z,78.63
2018-08-30T01:04:22.433Z,78.94
2018-08-30T01:06:51.145Z,79.16
2018-08-30T01:09:19.817Z,79.49
2018-08-30T01:11:51.361Z,79.18
2018-08-30T01:14:20.525Z,79.84
2018-08-30T01:16:49.254Z,79.50
2018-08-30T01:19:18.094Z,79.76
2018-08-30T01:21:46.789Z,79.89
2018-08-30T01:24:16.260Z,80.13
2018-08-30T01:26:45.545Z,80.27
2018-08-30T01:29:14.389Z,80.82
2018-08-30T01:31:43.093Z,81.08
2018-08-30T01:34:13.132Z,80.99
2018-08-30T01:36:43.393Z,81.46
2018-08-30T01:39:12.419Z,81.23
2018-08-30T01:41:42.501Z,81.74
2018-08-30T01:44:11.922Z,81.80
2018-08-30T01:46:40.611Z,82.03
2018-08-30T01:49:09.300Z,82.00
2018-08-30T01:51:38.051Z,81.99
2018-08-30T01:54:07.124Z,81.80
2018-08-30T01:56:36.004Z,81.97
2018-08-30T01:59:04.815Z,82.14
2018-08-30T02:01:33.423Z,82.11
2018-08-30T02:04:02.592Z,82.51
2018-08-30T02:06:31.209Z,82.59
2018-08-30T02:08:59.978Z,82.71
2018-08-30T02:11:28.967Z,82.75
2018-08-30T02:13:57.638Z,82.70
2018-08-30T02:16:26.673Z,83.07
2018-08-30T02:18:55.346Z,83.35
2018-08-30T02:21:25.081Z,83.32
2018-08-30T02:23:53.738Z,83.82
2018-08-30T02:26:22.424Z,83.83
2018-08-30T02:28:51.107Z,84.21
2018-08-30T02:31:19.804Z,84.45
2018-08-30T02:33:53.080Z,84.70
2018-08-30T02:36:21.962Z,84.85
2018-08-30T02:38:50.729Z,85.17
2018-08-30T02:41:19.425Z,84.87
2018-08-30T02:43:48.329Z,85.44
2018-08-30T02:46:17.061Z,85.76
2018-08-30T02:48:45.684Z,85.78
2018-08-30T02:51:14.281Z,85.61
2018-08-30T02:53:43.205Z,85.97
2018-08-30T02:56:11.868Z,86.23
2018-08-30T02:58:43.333Z,86.81
2018-08-30T03:01:12.450Z,86.80
2018-08-30T03:03:41.813Z,86.79
2018-08-30T03:06:10.502Z,87.38
2018-08-30T03:08:39.278Z,88.21
2018-08-30T03:11:09.036Z,88.20
2018-08-30T03:13:38.386Z,88.48
2018-08-30T03:16:07.177Z,88.94
2018-08-30T03:18:35.864Z,89.26
2018-08-30T03:21:04.554Z,89.50
2018-08-30T03:23:33.304Z,89.46
2018-08-30T03:26:02.091Z,89.80
2018-08-30T03:28:30.984Z,89.99
2018-08-30T03:30:59.849Z,90.02
2018-08-30T03:33:28.537Z,89.95
2018-08-30T03:35:57.292Z,90.23
2018-08-30T03:38:26.115Z,90.09
2018-08-30T03:40:55.549Z,90.68
2018-08-30T03:43:24.208Z,90.61
2018-08-30T03:45:52.908Z,91.18
2018-08-30T03:48:21.613Z,91.41
2018-08-30T03:50:50.238Z,91.50
2018-08-30T03:53:19.465Z,91.36
2018-08-30T03:55:48.141Z,91.53
2018-08-30T03:58:16.955Z,91.98
2018-08-30T04:00:45.663Z,91.88
2018-08-30T04:03:14.350Z,92.45
2018-08-30T04:05:43.217Z,92.33
2018-08-30T04:08:11.882Z,92.56
2018-08-30T04:10:40.728Z,92.46
2018-08-30T04:13:09.413Z,92.33
2018-08-30T04:15:38.142Z,92.46
2018-08-30T04:18:08.484Z,92.61
2018-08-30T04:20:37.170Z,92.58
2018-08-30T04:23:06.187Z,92.48
2018-08-30T04:25:35.622Z,92.18
2018-08-30T04:28:04.241Z,92.57
2018-08-30T04:30:32.909Z,92.31
2018-08-30T04:33:01.544Z,92.42
2018-08-30T04:35:30.184Z,92.69
2018-08-30T04:37:58.890Z,92.65
2018-08-30T04:40:27.906Z,92.53
2018-08-30T04:42:56.609Z,92.37
2018-08-30T04:45:25.203Z,92.32
2018-08-30T04:47:53.951Z,92.13
2018-08-30T04:50:22.685Z,91.62
2018-08-30T04:52:51.639Z,91.74
2018-08-30T04:55:20.865Z,91.56
2018-08-30T04:57:49.447Z,91.39
2018-08-30T05:00:18.124Z,91.08
2018-08-30T05:02:46.753Z,90.88
2018-08-30T05:05:15.422Z,90.94
2018-08-30T05:07:45.065Z,90.68
2018-08-30T05:10:13.793Z,90.27
2018-08-30T05:12:43.438Z,90.23
2018-08-30T05:15:12.707Z,90.22
2018-08-30T05:17:41.946Z,89.95
2018-08-30T05:20:10.729Z,89.48
2018-08-30T05:22:39.341Z,89.08
2018-08-30T05:25:08.114Z,88.59
2018-08-30T05:27:36.706Z,88.59
2018-08-30T05:30:05.410Z,87.80
2018-08-30T05:32:34.011Z,87.80
2018-08-30T05:35:02.697Z,86.63
2018-08-30T05:37:33.384Z,86.02
2018-08-30T05:40:02.116Z,86.06
2018-08-30T05:42:30.911Z,85.22
2018-08-30T05:45:00.589Z,84.76
2018-08-30T05:47:31.429Z,84.26
2018-08-30T05:50:00.120Z,83.92
2018-08-30T05:52:28.821Z,83.79
2018-08-30T05:54:57.541Z,82.87
2018-08-30T05:57:26.211Z,83.00
2018-08-30T05:59:54.897Z,82.50
2018-08-30T06:02:23.570Z,82.03
2018-08-30T06:04:52.566Z,81.77
2018-08-30T06:07:21.347Z,81.64
2018-08-30T06:09:50.763Z,81.34
2018-08-30T06:12:19.442Z,81.33
2018-08-30T06:14:48.049Z,81.08
2018-08-30T06:17:16.656Z,80.59
2018-08-30T06:19:45.435Z,79.82
2018-08-30T06:22:14.047Z,79.76
2018-08-30T06:24:42.625Z,79.59
2018-08-30T06:27:11.235Z,78.36
2018-08-30T06:29:39.974Z,78.29
2018-08-30T06:32:08.709Z,77.62
2018-08-30T06:34:37.391Z,76.78
2018-08-30T06:37:06.529Z,76.16
2018-08-30T06:39:35.380Z,75.35
2018-08-30T06:42:04.159Z,75.01
2018-08-30T06:44:32.845Z,74.41
2018-08-30T06:47:01.667Z,74.29
2018-08-30T06:49:30.309Z,75.04
2018-08-30T06:51:59.039Z,74.53
2018-08-30T06:54:27.694Z,74.41
2018-08-30T06:56:56.437Z,74.05
2018-08-30T06:59:25.157Z,73.29
2018-08-30T07:01:54.009Z,73.33
2018-08-30T07:04:23.004Z,72.87
2018-08-30T07:06:51.665Z,71.68
2018-08-30T07:09:20.545Z,72.68
2018-08-30T07:11:49.196Z,72.80
2018-08-30T07:14:18.013Z,71.84
2018-08-30T07:16:47.657Z,72.37
2018-08-30T07:19:16.366Z,70.89
2018-08-30T07:21:45.034Z,71.64
2018-08-30T07:24:13.812Z,70.67
2018-08-30T07:26:43.716Z,69.77
2018-08-30T07:29:12.503Z,68.95
2018-08-30T07:31:41.233Z,67.55
2018-08-30T07:34:10.154Z,68.18
2018-08-30T07:36:38.897Z,67.64
2018-08-30T07:39:10.661Z,67.37
2018-08-30T07:41:40.002Z,65.57
2018-08-30T07:44:09.365Z,65.24
2018-08-30T07:46:38.210Z,64.67
2018-08-30T07:49:07.681Z,64.82
2018-08-30T07:51:36.297Z,64.56
2018-08-30T07:54:05.311Z,65.26
2018-08-30T07:56:33.912Z,65.31
2018-08-30T07:59:02.630Z,64.77
2018-08-30T08:01:31.498Z,62.60
2018-08-30T08:04:02.680Z,63.36
2018-08-30T08:06:31.821Z,62.21
2018-08-30T08:09:00.481Z,62.73
2018-08-30T08:11:29.374Z,62.16
2018-08-30T08:13:58.006Z,61.01
2018-08-30T08:16:28.102Z,61.36
2018-08-30T08:18:57.048Z,59.94
2018-08-30T08:21:25.820Z,59.23
2018-08-30T08:23:54.590Z,60.33
2018-08-30T08:26:23.612Z,59.37
2018-08-30T08:28:52.475Z,56.79
2018-08-30T08:31:21.158Z,55.74
2018-08-30T08:34:50.286Z,56.48
2018-08-30T08:37:18.957Z,56.43
2018-08-30T08:39:48.553Z,56.24
2018-08-30T08:42:18.149Z,55.57
2018-08-30T08:44:46.738Z,56.26
2018-08-30T08:47:15.738Z,55.67
2018-08-30T08:49:44.549Z,55.41
2018-08-30T08:52:13.224Z,54.33
2018-08-30T08:54:41.833Z,54.32
2018-08-30T08:57:10.422Z,53.79
2018-08-30T08:59:39.197Z,52.79
2018-08-30T09:02:08.313Z,53.49
2018-08-30T09:04:37.106Z,52.83
2018-08-30T09:07:06.444Z,52.67
2018-08-30T09:09:36.275Z,53.16
2018-08-30T09:12:04.969Z,52.61
2018-08-30T09:14:33.707Z,52.06
2018-08-30T09:17:02.263Z,51.92
2018-08-30T09:19:30.976Z,51.76
2018-08-30T09:21:59.806Z,51.56
2018-08-30T09:24:28.554Z,50.62
2018-08-30T09:26:57.338Z,50.12
2018-08-30T09:29:25.830Z,51.16
2018-08-30T09:31:54.521Z,50.13
2018-08-30T09:34:23.432Z,50.79
2018-08-30T09:36:52.287Z,50.11
2018-08-30T09:39:22.101Z,50.15
2018-08-30T09:41:50.754Z,49.65
2018-08-30T09:44:19.493Z,48.77
2018-08-30T09:46:48.226Z,49.11
2018-08-30T09:49:17.000Z,48.10
2018-08-30T09:51:46.115Z,48.92
2018-08-30T09:54:14.989Z,49.15
2018-08-30T09:56:43.693Z,49.43
2018-08-30T09:59:12.384Z,49.09
2018-08-30T10:01:48.090Z,48.36
2018-08-30T10:04:19.964Z,48.25
2018-08-30T10:06:49.313Z,48.22
2018-08-30T10:09:18.777Z,48.39
2018-08-30T10:11:48.574Z,48.47
2018-08-30T10:14:17.683Z,48.42
2018-08-30T10:16:46.429Z,48.59
2018-08-30T10:19:15.653Z,47.81
2018-08-30T10:21:44.638Z,46.99
2018-08-30T10:24:14.127Z,46.87
2018-08-30T10:26:42.976Z,47.51
2018-08-30T10:29:11.667Z,47.52
2018-08-30T10:31:40.556Z,47.09
2018-08-30T10:34:09.211Z,46.97
2018-08-30T10:36:37.998Z,47.94
2018-08-30T10:39:08.315Z,47.12
2018-08-30T10:41:37.793Z,45.39
2018-08-30T10:44:06.722Z,44.42
2018-08-30T10:46:35.686Z,45.00
2018-08-30T10:49:04.481Z,43.77
2018-08-30T10:51:34.214Z,43.93
2018-08-30T10:54:02.995Z,43.61
2018-08-30T10:56:32.799Z,43.40
2018-08-30T10:59:01.662Z,43.47
2018-08-30T11:01:30.397Z,44.18
2018-08-30T11:03:59.421Z,42.37
2018-08-30T11:06:29.265Z,41.89
2018-08-30T11:08:58.133Z,41.45
2018-08-30T11:11:26.934Z,41.87
2018-08-30T11:13:55.661Z,40.23
2018-08-30T11:16:24.405Z,39.00
2018-08-30T11:18:53.107Z,38.85
2018-08-30T11:21:21.952Z,37.84
2018-08-30T11:23:50.707Z,37.35
2018-08-30T11:26:19.554Z,35.02
2018-08-30T11:28:48.325Z,35.76
2018-08-30T11:31:16.933Z,36.66
2018-08-30T11:33:45.829Z,37.45
2018-08-30T11:36:14.541Z,36.91
2018-08-30T11:38:43.290Z,35.98
2018-08-30T11:41:12.166Z,35.71
2018-08-30T11:43:41.702Z,36.20
2018-08-30T11:46:10.506Z,37.62
2018-08-30T11:48:39.296Z,35.92
2018-08-30T11:51:08.074Z,35.82
2018-08-30T11:53:36.704Z,35.18
2018-08-30T11:56:05.970Z,34.77
2018-08-30T11:58:34.748Z,33.88
2018-08-30T12:01:03.464Z,34.51
2018-08-30T12:03:32.663Z,34.15
2018-08-30T12:06:02.600Z,34.43
2018-08-30T12:08:31.457Z,35.86
2018-08-30T12:11:00.551Z,36.55
2018-08-30T12:13:30.098Z,37.72
2018-08-30T12:15:58.770Z,36.81
2018-08-30T12:18:27.355Z,37.20
2018-08-30T12:20:56.134Z,38.12
2018-08-30T12:23:26.999Z,38.88
2018-08-30T12:25:55.665Z,40.54
2018-08-30T12:28:24.456Z,41.13
2018-08-30T12:30:53.178Z,41.60
2018-08-30T12:33:21.850Z,42.18
2018-08-30T12:35:51.590Z,42.13
2018-08-30T12:38:20.734Z,42.80
2018-08-30T12:40:49.627Z,42.63
2018-08-30T12:43:18.220Z,41.56
2018-08-30T12:45:46.818Z,41.64
2018-08-30T12:48:15.531Z,41.29
2018-08-30T12:50:44.579Z,40.46
2018-08-30T12:53:13.308Z,40.41
2018-08-30T12:55:42.945Z,40.71
2018-08-30T12:58:12.628Z,40.61
2018-08-30T13:00:41.171Z,39.96
2018-08-30T13:03:09.968Z,39.62
2018-08-30T13:05:38.834Z,40.63
2018-08-30T13:08:07.568Z,40.62
2018-08-30T13:10:36.529Z,40.19
2018-08-30T13:13:05.216Z,41.02
2018-08-30T13:15:33.858Z,40.70
2018-08-30T13:18:02.501Z,41.63
2018-08-30T13:20:31.876Z,42.10
2018-08-30T13:23:00.888Z,42.65
2018-08-30T13:25:29.694Z,43.23
2018-08-30T13:27:58.475Z,45.46
2018-08-30T13:30:27.437Z,52.19
2018-08-30T13:32:56.060Z,54.37
2018-08-30T13:35:24.861Z,57.61
2018-08-30T13:37:53.678Z,60.68
2018-08-30T13:40:22.499Z,60.70
2018-08-30T13:42:51.258Z,62.19
2018-08-30T13:45:20.457Z,63.32
2018-08-30T13:47:50.166Z,64.27
2018-08-30T13:50:18.929Z,65.19
2018-08-30T13:52:47.807Z,65.69
2018-08-30T13:55:16.359Z,66.45
2018-08-30T13:57:45.307Z,67.17
2018-08-30T14:00:14.119Z,67.47
2018-08-30T14:02:42.619Z,67.99
2018-08-30T14:05:13.660Z,68.49
2018-08-30T14:07:42.357Z,69.08
2018-08-30T14:10:10.895Z,70.03
2018-08-30T14:12:39.604Z,71.18
2018-08-30T14:15:08.516Z,72.23
2018-08-30T14:17:36.806Z,71.69
2018-08-30T14:20:07.043Z,72.46
2018-08-30T14:22:36.703Z,72.63
2018-08-30T14:25:05.681Z,72.80
2018-08-30T14:27:34.753Z,72.62
2018-08-30T14:30:03.592Z,72.73
2018-08-30T14:32:32.339Z,72.09
2018-08-30T14:35:01.109Z,72.08
2018-08-30T14:37:30.039Z,72.18
2018-08-30T14:39:59.391Z,72.17
2018-08-30T14:42:28.085Z,72.24
2018-08-30T14:44:56.801Z,72.58
2018-08-30T14:47:26.346Z,72.28
2018-08-30T14:49:55.125Z,74.26
2018-08-30T14:52:24.606Z,77.69
2018-08-30T14:54:53.333Z,80.52
2018-08-30T14:57:22.166Z,84.09
2018-08-30T14:59:51.157Z,86.39
2018-08-30T15:02:20.082Z,86.27
2018-08-30T15:04:48.705Z,88.55
2018-08-30T15:07:18.485Z,91.12
2018-08-30T15:09:48.398Z,91.44
2018-08-30T15:12:17.712Z,92.15
2018-08-30T15:14:47.599Z,91.16
2018-08-30T15:17:16.697Z,91.91
2018-08-30T15:19:48.010Z,91.56
2018-08-30T15:22:16.676Z,91.83
2018-08-30T15:24:45.366Z,92.44
2018-08-30T15:27:14.153Z,90.99
2018-08-30T15:29:42.752Z,91.75
2018-08-30T15:32:11.476Z,92.15
2018-08-30T15:34:40.178Z,93.78
2018-08-30T15:37:09.118Z,92.14
2018-08-30T15:39:37.964Z,92.56
2018-08-30T15:42:06.728Z,93.88
2018-08-30T15:44:35.422Z,93.98
2018-08-30T15:47:04.225Z,94.48
2018-08-30T15:49:32.950Z,94.45
2018-08-30T15:52:01.654Z,95.12
2018-08-30T15:54:31.063Z,95.63
2018-08-30T15:57:00.458Z,95.70
2018-08-30T15:59:29.354Z,96.24
2018-08-30T16:01:58.665Z,96.89
2018-08-30T16:04:28.342Z,97.43
2018-08-30T16:06:56.962Z,97.46
2018-08-30T16:09:25.670Z,98.42
2018-08-30T16:11:54.429Z,98.85
2018-08-30T16:14:23.115Z,98.69
2018-08-30T16:16:51.928Z,99.01
2018-08-30T16:19:20.570Z,99.53
2018-08-30T16:21:49.291Z,99.76
2018-08-30T16:24:18.033Z,100.00
2018-08-30T16:26:46.825Z,100.00
2018-08-30T16:29:16.165Z,100.00
2018-08-30T16:31:45.356Z,100.00
2018-08-30T16:34:14.154Z,99.60
2018-08-30T16:36:42.835Z,98.30
2018-08-30T16:39:12.284Z,98.89
2018-08-30T16:41:41.215Z,99.22
2018-08-30T16:44:10.418Z,99.63
2018-08-30T16:46:40.648Z,100.00
2018-08-30T16:49:09.387Z,100.00
2018-08-30T16:51:38.022Z,100.00
2018-08-30T16:54:06.832Z,100.00
2018-08-30T16:56:35.750Z,100.00
2018-08-30T16:59:04.541Z,100.00
2018-08-30T17:01:33.102Z,100.00
2018-08-30T17:04:02.676Z,100.00
2018-08-30T17:06:31.329Z,100.00
2018-08-30T17:08:59.984Z,100.00
2018-08-30T17:11:28.768Z,100.00
2018-08-30T17:13:58.378Z,100.00
2018-08-30T17:16:28.300Z,100.00
2018-08-30T17:19:02.401Z,100.00
2018-08-30T17:21:32.023Z,100.00
2018-08-30T17:24:01.233Z,100.00
2018-08-30T17:26:30.023Z,100.00
2018-08-30T17:28:58.877Z,100.00
2018-08-30T17:31:27.608Z,100.00
2018-08-30T17:33:56.518Z,100.00
2018-08-30T17:36:25.384Z,100.00
2018-08-30T17:38:54.161Z,100.00
2018-08-30T17:41:22.877Z,100.00
2018-08-30T17:43:51.545Z,100.00
2018-08-30T17:46:21.498Z,100.00
2018-08-30T17:48:51.382Z,100.00
2018-08-30T17:51:19.997Z,100.00
2018-08-30T17:53:49.112Z,100.00
2018-08-30T17:56:17.893Z,100.00
2018-08-30T17:58:46.892Z,100.00
2018-08-30T18:01:15.715Z,100.00
2018-08-30T18:03:44.459Z,100.00
2018-08-30T18:06:13.167Z,100.00
2018-08-30T18:08:41.941Z,100.00
2018-08-30T18:11:11.650Z,100.00
2018-08-30T18:13:40.353Z,100.00
2018-08-30T18:16:09.054Z,100.00
2018-08-30T18:18:37.806Z,100.00
2018-08-30T18:21:06.409Z,100.00
2018-08-30T18:23:35.111Z,100.00
2018-08-30T18:26:03.750Z,100.00
2018-08-30T18:28:32.495Z,100.00
2018-08-30T18:31:01.403Z,100.00
2018-08-30T18:33:30.121Z,100.00
2018-08-30T18:35:59.596Z,100.00
2018-08-30T18:38:28.418Z,100.00
2018-08-30T18:40:57.426Z,100.00
2018-08-30T18:43:27.929Z,100.00
2018-08-30T18:45:56.821Z,100.00
2018-08-30T18:48:25.909Z,99.19
2018-08-30T18:50:54.847Z,99.77
2018-08-30T18:53:23.704Z,99.10
2018-08-30T18:55:52.478Z,98.80
2018-08-30T18:58:21.743Z,98.90
2018-08-30T19:00:50.593Z,99.25
2018-08-30T19:03:19.395Z,99.35
2018-08-30T19:05:48.388Z,98.95
2018-08-30T19:08:17.735Z,99.49
2018-08-30T19:10:46.435Z,99.56
2018-08-30T19:13:15.506Z,99.59
2018-08-30T19:15:50.519Z,100.00
2018-08-30T19:18:24.530Z,100.00
2018-08-30T19:20:53.223Z,100.00
2018-08-30T19:23:22.282Z,100.00
2018-08-30T19:25:51.419Z,100.00
2018-08-30T19:28:20.726Z,100.00
2018-08-30T19:30:49.607Z,100.00
2018-08-30T19:33:18.478Z,100.00
2018-08-30T19:35:52.926Z,100.00
2018-08-30T19:38:21.891Z,100.00
2018-08-30T19:40:56.767Z,100.00
2018-08-30T19:43:25.491Z,100.00
2018-08-30T19:45:56.027Z,99.55
2018-08-30T19:48:24.770Z,99.59
2018-08-30T19:50:53.701Z,99.70
2018-08-30T19:53:24.334Z,100.00
2018-08-30T19:55:53.015Z,99.87
2018-08-30T19:58:21.901Z,100.00
2018-08-30T20:00:50.783Z,100.00
2018-08-30T20:03:19.578Z,100.00
2018-08-30T20:05:48.937Z,100.00
2018-08-30T20:08:17.694Z,100.00
2018-08-30T20:10:46.434Z,100.00
2018-08-30T20:13:15.233Z,100.00
2018-08-30T20:15:43.956Z,100.00
2018-08-30T20:18:12.938Z,100.00
2018-08-30T20:20:42.526Z,100.00
2018-08-30T20:23:11.415Z,100.00
2018-08-30T20:25:40.521Z,100.00
2018-08-30T20:28:09.333Z,100.00
2018-08-30T20:30:39.169Z,100.00
2018-08-30T20:33:09.945Z,100.00
2018-08-30T20:35:40.445Z,99.48
2018-08-30T20:38:09.210Z,99.44
2018-08-30T20:40:37.913Z,99.38
2018-08-30T20:43:07.610Z,99.26
2018-08-30T20:45:36.218Z,99.07
2018-08-30T20:48:04.920Z,99.05
2018-08-30T20:50:33.610Z,99.08
2018-08-30T20:53:02.378Z,98.66
2018-08-30T20:55:31.150Z,97.92
2018-08-30T20:57:59.952Z,98.32
2018-08-30T21:00:29.592Z,98.45
2018-08-30T21:02:58.306Z,98.50
2018-08-30T21:05:27.308Z,98.68
2018-08-30T21:07:56.030Z,99.22
2018-08-30T21:10:24.673Z,99.41
2018-08-30T21:12:53.469Z,99.82
2018-08-30T21:15:22.298Z,100.00
2018-08-30T21:17:50.961Z,100.00
2018-08-30T21:20:19.766Z,100.00
2018-08-30T21:22:48.505Z,100.00
2018-08-30T21:25:17.112Z,99.93
2018-08-30T21:27:46.080Z,100.00
2018-08-30T21:30:14.610Z,100.00
2018-08-30T21:32:43.405Z,99.69
2018-08-30T21:35:12.062Z,100.00
2018-08-30T21:37:40.795Z,100.00
2018-08-30T21:40:10.545Z,100.00
2018-08-30T21:42:40.557Z,99.88
2018-08-30T21:45:09.326Z,99.97
2018-08-30T21:47:38.153Z,100.00
2018-08-30T21:50:07.124Z,100.00
2018-08-30T21:52:36.850Z,100.00
2018-08-30T21:55:06.674Z,99.93
2018-08-30T21:57:36.534Z,99.61
2018-08-30T22:00:06.277Z,99.04
2018-08-30T22:02:35.051Z,98.51
2018-08-30T22:05:03.756Z,98.21
2018-08-30T22:07:33.825Z,98.37
2018-08-30T22:10:02.603Z,98.49
2018-08-30T22:12:31.286Z,98.60
2018-08-30T22:14:59.974Z,99.53
2018-08-30T22:17:28.779Z,99.66
2018-08-30T22:19:57.358Z,100.00
2018-08-30T22:22:26.109Z,100.00
2018-08-30T22:24:54.941Z,99.56
2018-08-30T22:27:23.811Z,99.06
2018-08-30T22:29:52.570Z,98.79
2018-08-30T22:32:21.162Z,98.65
2018-08-30T22:34:49.966Z,98.78
2018-08-30T22:37:19.527Z,97.88
2018-08-30T22:39:48.250Z,98.01
2018-08-30T22:42:17.021Z,97.78
2018-08-30T22:44:45.696Z,97.43
2018-08-30T22:47:14.401Z,97.56
2018-08-30T22:49:44.139Z,97.85
2018-08-30T22:52:12.826Z,97.93
2018-08-30T22:54:41.859Z,97.96
2018-08-30T22:57:10.615Z,98.14
2018-08-30T22:59:39.269Z,97.92
2018-08-30T23:02:08.125Z,97.97
2018-08-30T23:04:39.052Z,98.38
2018-08-30T23:07:07.747Z,98.14
2018-08-30T23:09:36.379Z,97.77
2018-08-30T23:12:05.326Z,98.23
2018-08-30T23:14:35.017Z,98.24
2018-08-30T23:17:04.544Z,97.95
2018-08-30T23:19:33.766Z,98.29
2018-08-30T23:22:02.675Z,98.48
2018-08-30T23:24:31.358Z,98.06
2018-08-30T23:27:00.429Z,97.08
2018-08-30T23:29:29.181Z,97.23
2018-08-30T23:31:57.925Z,96.41
2018-08-30T23:34:26.811Z,96.07
2018-08-30T23:36:55.562Z,96.72
2018-08-30T23:39:24.300Z,96.43
2018-08-30T23:41:53.200Z,96.24
2018-08-30T23:44:21.933Z,96.85
2018-08-30T23:46:50.637Z,96.60
2018-08-30T23:49:19.468Z,96.54
2018-08-30T23:51:48.362Z,97.12
2018-08-30T23:54:17.096Z,97.18
2018-08-30T23:56:45.951Z,97.55
2018-08-30T23:59:26.546Z,98.07
